Libertador Gral D Jose De San Martin Airport
SARP : now visible

Airfield :











YOU CAN JOIN US ON...

 
LOGIN :

Register | Disclaimer

   EN    FR    IT 

 









Legend :    VFR   Marginal VFR   IFR   Intensive IFR   Very Intensive IFR
Visi :
Ceiling :
>= 8 km
>= 3000ft
5 to 8 km
1000 to 3000 ft
1500m to 5 km
500 to 1000 ft
800 to 1500m
200 to 500 ft
< 800m
< 200 ft
Symbols :   Thunderstorms  Fog  Heavy snow  Heavy precipitations  Wind > 20 kt






- Airport Elevation : 430 ft
- IATA code : PSS


SARP - Libertador Gral D Jose De San Martin

CURRENT METAR :
  • 032000Z 18006KT 9999 SCT035 24/13 Q1014

EXPIRED METARs :
  • 031900Z 16008KT 9999 SCT035 24/13 Q1015
  • 031800Z 16004KT 9999 SCT035 23/13 Q1016

TAF TAF SARP
Valid from the 03 at 18:00 until the 04 at 18:00 UTC


031700Z 0318/0418 14005KT 9999 SCT035 TX25/0319Z TN12/0410Z
BECMG 0401/0403 CAVOK
BECMG 0405/0407 05010KT



MET'MAP, your aeronautical weather chart ! - Copyright ORBIFLY December 2007 - Disclaimer

ORBIFLY MET'MAP TEAM :

Programming & Development : Alexandra Zaïnal
Concept & original design : Baudouin d'Aumeries
Assistance for programming : Marc-Olivier Méhu
Technical & hardware support : Manuel Goepfert

Contact : metmap@orbifly.com




SOURCES & CREDITS :

   NOAA       Earth
Advisory